Stoy, Illinois
Current Conditions -  °F | °C
As of 12:15 AM on Tuesday 21 Oct 2014 (Local Time) from KRSV Reporting Station
Scattered Clouds Scattered Clouds  
Wind Chill: 48°   Ceiling: Unl
Heat Index: 49°   Visibility: 10mi
Dew Point: 45°   Wind: 5mph
Humidity: 84%   Direction: 280°W
Pressure: 30"   Gusts: NA
Location:  39°N, 87.83°W
Report Text: KRSV 210515Z AUTO 28004KT 10SM SCT060 10/07 A3000 RMK AO2 T00960070
Loading
Personal Weather Stations






























Interactive Weather Map
Tropical Storm Tracking
New forecast layout! Learn more

10-Day Weather Forecast

Advertisements
Track Severe Weather on mobile